createdAt,value
2023-03-25T00:01:05.731Z,69.37
2023-03-25T00:03:33.134Z,69.14
2023-03-25T00:06:00.250Z,69.53
2023-03-25T00:08:27.165Z,69.51
2023-03-25T00:10:55.059Z,69.42
2023-03-25T00:13:22.171Z,69.43
2023-03-25T00:15:49.884Z,69.50
2023-03-25T00:18:16.575Z,69.20
2023-03-25T00:20:43.432Z,69.12
2023-03-25T00:23:10.090Z,69.20
2023-03-25T00:25:36.638Z,69.52
2023-03-25T00:28:03.345Z,69.11
2023-03-25T00:30:30.182Z,69.06
2023-03-25T00:32:56.845Z,68.97
2023-03-25T00:35:24.311Z,69.20
2023-03-25T00:37:52.271Z,69.00
2023-03-25T00:40:18.936Z,67.72
2023-03-25T00:42:45.575Z,69.35
2023-03-25T00:45:12.805Z,68.96
2023-03-25T00:47:39.470Z,69.10
2023-03-25T00:50:06.791Z,68.96
2023-03-25T00:52:33.523Z,69.33
2023-03-25T00:55:00.154Z,69.21
2023-03-25T00:57:26.738Z,68.33
2023-03-25T00:59:53.475Z,68.68
2023-03-25T01:02:21.076Z,69.26
2023-03-25T01:04:47.908Z,69.25
2023-03-25T01:07:14.636Z,69.58
2023-03-25T01:09:43.759Z,69.06
2023-03-25T01:12:10.329Z,69.25
2023-03-25T01:14:37.082Z,69.32
2023-03-25T01:17:04.056Z,69.11
2023-03-25T01:19:30.665Z,69.42
2023-03-25T01:21:57.525Z,69.13
2023-03-25T01:24:24.167Z,68.60
2023-03-25T01:26:50.766Z,69.70
2023-03-25T01:29:20.374Z,69.50
2023-03-25T01:31:47.248Z,69.71
2023-03-25T01:34:14.658Z,69.63
2023-03-25T01:36:41.325Z,69.88
2023-03-25T01:39:09.052Z,69.72
2023-03-25T01:41:49.189Z,69.07
2023-03-25T01:44:20.695Z,67.72
2023-03-25T01:46:48.854Z,69.76
2023-03-25T01:49:41.168Z,62.05
2023-03-25T01:52:25.403Z,62.94
2023-03-25T01:54:55.086Z,68.42
2023-03-25T01:57:23.413Z,69.34
2023-03-25T01:59:52.050Z,68.68
2023-03-25T02:02:19.182Z,68.82
2023-03-25T02:04:52.305Z,66.19
2023-03-25T02:07:19.173Z,69.43
2023-03-25T02:09:46.144Z,67.44
2023-03-25T02:12:12.937Z,68.20
2023-03-25T02:14:39.715Z,68.04
2023-03-25T02:17:23.106Z,67.20
2023-03-25T02:20:27.364Z,60.83
2023-03-25T02:23:24.443Z,63.70
2023-03-25T02:26:26.042Z,59.48
2023-03-25T02:29:08.964Z,65.03
2023-03-25T02:31:55.020Z,60.20
2023-03-25T02:34:41.944Z,66.98
2023-03-25T02:37:54.065Z,62.54
2023-03-25T02:40:31.487Z,61.91
2023-03-25T02:43:13.055Z,60.82
2023-03-25T02:45:48.260Z,61.07
2023-03-25T02:48:21.291Z,64.86
2023-03-25T02:50:55.301Z,61.44
2023-03-25T02:53:29.429Z,63.14
2023-03-25T02:56:01.941Z,60.72
2023-03-25T02:58:30.719Z,63.47
2023-03-25T03:00:57.670Z,64.87
2023-03-25T03:03:26.074Z,63.21
2023-03-25T03:05:59.347Z,62.61
2023-03-25T03:08:49.731Z,62.47
2023-03-25T03:11:31.303Z,60.87
2023-03-25T03:14:25.645Z,63.84
2023-03-25T03:16:58.744Z,65.38
2023-03-25T03:19:40.678Z,62.57
2023-03-25T03:22:13.914Z,65.41
2023-03-25T03:24:49.432Z,65.34
2023-03-25T03:27:24.850Z,59.99
2023-03-25T03:30:09.952Z,59.32
2023-03-25T03:33:01.603Z,62.62
2023-03-25T03:35:38.417Z,64.33
2023-03-25T03:38:10.242Z,63.13
2023-03-25T03:40:38.615Z,65.09
2023-03-25T03:43:14.123Z,63.78
2023-03-25T03:45:45.809Z,63.62
2023-03-25T03:48:21.447Z,63.33
2023-03-25T03:50:54.110Z,61.22
2023-03-25T03:53:27.544Z,63.64
2023-03-25T03:55:59.947Z,58.20
2023-03-25T03:58:31.592Z,60.96
2023-03-25T04:01:16.931Z,60.39
2023-03-25T04:03:46.321Z,65.40
2023-03-25T04:06:22.316Z,64.66
2023-03-25T04:09:08.018Z,59.99
2023-03-25T04:11:43.092Z,61.57
2023-03-25T04:14:11.345Z,62.85
2023-03-25T04:16:37.917Z,62.17
2023-03-25T04:19:05.844Z,63.29
2023-03-25T04:21:33.583Z,63.23
2023-03-25T04:24:00.343Z,64.21
2023-03-25T04:26:28.820Z,63.06
2023-03-25T04:28:57.644Z,62.60
2023-03-25T04:31:24.998Z,63.80
2023-03-25T04:33:51.711Z,64.07
2023-03-25T04:36:18.316Z,63.53
2023-03-25T04:38:45.097Z,64.70
2023-03-25T04:41:13.061Z,63.02
2023-03-25T04:43:40.076Z,63.52
2023-03-25T04:46:07.142Z,62.98
2023-03-25T04:48:36.498Z,64.09
2023-03-25T04:51:03.228Z,63.53
2023-03-25T04:53:30.329Z,63.47
2023-03-25T04:55:57.265Z,63.29
2023-03-25T04:58:23.896Z,64.29
2023-03-25T05:00:52.093Z,63.26
2023-03-25T05:03:19.410Z,58.29
2023-03-25T05:05:45.994Z,63.78
2023-03-25T05:08:12.656Z,64.17
2023-03-25T05:10:39.241Z,63.12
2023-03-25T05:13:07.826Z,64.16
2023-03-25T05:15:36.798Z,63.67
2023-03-25T05:18:03.409Z,63.57
2023-03-25T05:20:29.983Z,63.63
2023-03-25T05:22:56.707Z,62.50
2023-03-25T05:25:23.351Z,62.88
2023-03-25T05:27:50.106Z,61.76
2023-03-25T05:30:16.898Z,62.82
2023-03-25T05:32:43.660Z,63.38
2023-03-25T05:35:10.298Z,63.89
2023-03-25T05:37:36.999Z,63.47
2023-03-25T05:40:04.250Z,63.77
2023-03-25T05:42:42.196Z,63.42
2023-03-25T05:45:09.913Z,63.63
2023-03-25T05:47:36.495Z,63.09
2023-03-25T05:50:03.312Z,63.40
2023-03-25T05:52:29.919Z,63.80
2023-03-25T05:54:56.551Z,63.50
2023-03-25T05:57:23.100Z,64.27
2023-03-25T05:59:49.706Z,63.78
2023-03-25T06:02:17.205Z,64.16
2023-03-25T06:04:44.368Z,64.26
2023-03-25T06:07:12.069Z,61.64
2023-03-25T06:09:38.652Z,63.97
2023-03-25T06:12:05.534Z,63.22
2023-03-25T06:14:32.301Z,63.92
2023-03-25T06:16:58.883Z,63.63
2023-03-25T06:19:25.656Z,62.01
2023-03-25T06:21:52.353Z,59.19
2023-03-25T06:24:19.163Z,61.46
2023-03-25T06:26:45.966Z,61.53
2023-03-25T06:29:12.642Z,61.59
2023-03-25T06:31:39.282Z,61.69
2023-03-25T06:34:05.966Z,61.40
2023-03-25T06:36:32.633Z,61.63
2023-03-25T06:38:59.308Z,61.31
2023-03-25T06:41:26.674Z,60.02
2023-03-25T06:44:04.613Z,60.38
2023-03-25T06:46:57.230Z,59.50
2023-03-25T06:49:29.583Z,59.83
2023-03-25T06:51:57.500Z,58.36
2023-03-25T06:54:24.513Z,58.16
2023-03-25T06:56:51.082Z,56.74
2023-03-25T06:59:17.771Z,58.16
2023-03-25T07:01:44.662Z,57.60
2023-03-25T07:04:11.279Z,58.12
2023-03-25T07:06:37.958Z,56.77
2023-03-25T07:09:04.684Z,57.25
2023-03-25T07:11:33.131Z,57.87
2023-03-25T07:14:00.135Z,56.42
2023-03-25T07:16:27.389Z,59.22
2023-03-25T07:18:54.193Z,55.89
2023-03-25T07:21:20.982Z,58.16
2023-03-25T07:23:47.625Z,57.47
2023-03-25T07:26:14.834Z,57.29
2023-03-25T07:28:41.518Z,57.79
2023-03-25T07:31:13.941Z,56.16
2023-03-25T07:33:40.590Z,58.27
2023-03-25T07:36:09.213Z,57.66
2023-03-25T07:38:35.929Z,57.86
2023-03-25T07:41:07.425Z,57.60
2023-03-25T07:43:34.018Z,57.63
2023-03-25T07:46:20.064Z,57.72
2023-03-25T07:48:46.653Z,56.95
2023-03-25T07:51:13.211Z,57.18
2023-03-25T07:53:39.920Z,57.97
2023-03-25T07:56:07.211Z,58.19
2023-03-25T07:58:33.831Z,57.96
2023-03-25T08:01:00.425Z,57.45
2023-03-25T08:03:27.574Z,57.62
2023-03-25T08:05:54.627Z,57.31
2023-03-25T08:08:21.311Z,58.58
2023-03-25T08:10:47.977Z,58.41
2023-03-25T08:13:14.612Z,57.18
2023-03-25T08:15:41.340Z,57.05
2023-03-25T08:18:08.117Z,56.87
2023-03-25T08:20:35.724Z,56.44
2023-03-25T08:23:02.562Z,57.37
2023-03-25T08:25:32.539Z,57.20
2023-03-25T08:27:59.229Z,57.56
2023-03-25T08:30:25.814Z,57.47
2023-03-25T08:32:52.836Z,57.66
2023-03-25T08:35:21.026Z,57.17
2023-03-25T08:37:48.767Z,57.87
2023-03-25T08:40:15.412Z,57.80
2023-03-25T08:42:42.146Z,57.75
2023-03-25T08:45:09.671Z,57.51
2023-03-25T08:47:36.298Z,56.03
2023-03-25T08:50:03.635Z,56.71
2023-03-25T08:52:30.228Z,56.83
2023-03-25T08:54:56.865Z,55.75
2023-03-25T08:57:23.578Z,55.96
2023-03-25T08:59:50.353Z,56.36
2023-03-25T09:02:17.047Z,55.28
2023-03-25T09:04:43.638Z,55.56
2023-03-25T09:07:12.350Z,55.46
2023-03-25T09:09:40.519Z,55.62
2023-03-25T09:12:08.207Z,55.90
2023-03-25T09:14:35.020Z,56.75
2023-03-25T09:17:01.632Z,51.36
2023-03-25T09:19:28.373Z,54.93
2023-03-25T09:21:55.045Z,56.54
2023-03-25T09:24:21.888Z,57.34
2023-03-25T09:26:48.921Z,56.06
2023-03-25T09:29:15.637Z,55.93
2023-03-25T09:31:42.708Z,55.64
2023-03-25T09:34:09.492Z,56.55
2023-03-25T09:36:36.222Z,55.10
2023-03-25T09:39:03.453Z,56.50
2023-03-25T09:41:52.284Z,56.46
2023-03-25T09:44:26.891Z,52.64
2023-03-25T09:46:55.080Z,56.67
2023-03-25T09:49:25.407Z,53.16
2023-03-25T09:51:54.736Z,56.18
2023-03-25T09:54:27.101Z,55.15
2023-03-25T09:56:59.667Z,54.13
2023-03-25T09:59:50.271Z,51.75
2023-03-25T10:02:34.430Z,50.34
2023-03-25T10:05:40.298Z,52.74
2023-03-25T10:08:24.923Z,52.91
2023-03-25T10:11:05.684Z,49.81
2023-03-25T10:13:40.554Z,51.73
2023-03-25T10:16:25.930Z,50.01
2023-03-25T10:19:31.120Z,47.91
2023-03-25T10:22:04.990Z,49.19
2023-03-25T10:24:38.223Z,47.03
2023-03-25T10:27:42.928Z,48.49
2023-03-25T10:30:09.460Z,47.58
2023-03-25T10:32:43.804Z,48.85
2023-03-25T10:35:26.207Z,46.59
2023-03-25T10:37:55.453Z,48.74
2023-03-25T10:40:30.272Z,45.85
2023-03-25T10:43:28.040Z,43.59
2023-03-25T10:45:56.961Z,46.75
2023-03-25T10:48:25.963Z,46.69
2023-03-25T10:51:00.788Z,48.60
2023-03-25T10:53:28.593Z,49.79
2023-03-25T10:56:02.333Z,48.77
2023-03-25T10:58:30.400Z,48.73
2023-03-25T11:00:57.098Z,49.44
2023-03-25T11:03:30.827Z,48.94
2023-03-25T11:05:57.846Z,50.61
2023-03-25T11:08:25.598Z,50.26
2023-03-25T11:10:53.184Z,47.76
2023-03-25T11:13:29.996Z,47.72
2023-03-25T11:16:03.293Z,47.03
2023-03-25T11:18:35.287Z,46.67
2023-03-25T11:21:12.536Z,46.67
2023-03-25T11:23:49.514Z,48.20
2023-03-25T11:26:25.022Z,47.48
2023-03-25T11:28:55.102Z,47.87
2023-03-25T11:31:25.192Z,49.18
2023-03-25T11:34:10.758Z,47.04
2023-03-25T11:36:39.465Z,47.63
2023-03-25T11:39:26.045Z,45.71
2023-03-25T11:41:52.789Z,48.31
2023-03-25T11:44:32.562Z,46.22
2023-03-25T11:47:06.043Z,44.86
2023-03-25T11:49:39.059Z,45.54
2023-03-25T11:52:09.623Z,47.37
2023-03-25T11:54:37.484Z,46.00
2023-03-25T11:57:10.145Z,45.65
2023-03-25T11:59:43.064Z,45.22
2023-03-25T12:02:22.117Z,46.53
2023-03-25T12:05:02.770Z,42.75
2023-03-25T12:07:30.334Z,46.23
2023-03-25T12:09:59.381Z,45.37
2023-03-25T12:12:48.376Z,45.85
2023-03-25T12:15:47.133Z,45.85
2023-03-25T12:18:30.350Z,44.84
2023-03-25T12:21:02.992Z,45.06
2023-03-25T12:23:41.710Z,42.99
2023-03-25T12:26:19.057Z,46.05
2023-03-25T12:29:04.662Z,44.11
2023-03-25T12:32:03.345Z,45.08
2023-03-25T12:35:01.575Z,45.38
2023-03-25T12:38:01.169Z,42.54
2023-03-25T12:40:30.816Z,47.41
2023-03-25T12:43:06.281Z,46.27
2023-03-25T12:45:48.465Z,44.83
2023-03-25T12:48:43.780Z,44.23
2023-03-25T12:51:38.244Z,44.40
2023-03-25T12:54:28.339Z,44.11
2023-03-25T12:57:13.643Z,41.33
2023-03-25T13:00:15.442Z,44.36
2023-03-25T13:03:19.766Z,41.27
2023-03-25T13:06:22.014Z,43.46
2023-03-25T13:08:57.530Z,45.72
2023-03-25T13:11:33.196Z,46.05
2023-03-25T13:14:05.545Z,44.28
2023-03-25T13:16:36.033Z,44.48
2023-03-25T13:19:20.520Z,44.16
2023-03-25T13:21:52.852Z,45.50
2023-03-25T13:24:24.908Z,44.44
2023-03-25T13:26:54.252Z,45.36
2023-03-25T13:29:29.912Z,45.41
2023-03-25T13:32:01.407Z,45.55
2023-03-25T13:34:35.889Z,43.42
2023-03-25T13:37:18.796Z,42.54
2023-03-25T13:40:03.773Z,45.03
2023-03-25T13:42:44.935Z,43.13
2023-03-25T13:45:22.473Z,46.32
2023-03-25T13:48:17.758Z,44.87
2023-03-25T13:50:44.803Z,45.88
2023-03-25T13:53:32.707Z,44.94
2023-03-25T13:56:18.104Z,45.86
2023-03-25T13:59:18.555Z,47.49
2023-03-25T14:01:55.299Z,46.31
2023-03-25T14:04:41.355Z,46.82
2023-03-25T14:07:34.409Z,45.95
2023-03-25T14:10:14.316Z,46.63
2023-03-25T14:12:51.731Z,45.16
2023-03-25T14:15:27.916Z,45.89
2023-03-25T14:17:55.285Z,47.25
2023-03-25T14:20:33.388Z,44.02
2023-03-25T14:23:06.129Z,45.71
2023-03-25T14:25:39.131Z,45.64
2023-03-25T14:28:07.520Z,45.30
2023-03-25T14:30:35.171Z,45.39
2023-03-25T14:33:01.980Z,46.00
2023-03-25T14:35:31.402Z,46.58
2023-03-25T14:38:06.900Z,45.54
2023-03-25T14:40:50.741Z,43.64
2023-03-25T14:43:35.969Z,45.35
2023-03-25T14:46:11.746Z,45.11
2023-03-25T14:48:47.616Z,43.45
2023-03-25T14:51:23.595Z,46.56
2023-03-25T14:54:16.003Z,46.29
2023-03-25T14:56:59.747Z,44.51
2023-03-25T14:59:56.234Z,45.52
2023-03-25T15:02:28.211Z,44.53
2023-03-25T15:05:24.024Z,45.81
2023-03-25T15:07:58.354Z,43.91
2023-03-25T15:10:36.669Z,43.22
2023-03-25T15:13:06.543Z,43.92
2023-03-25T15:15:45.390Z,43.49
2023-03-25T15:18:32.721Z,42.63
2023-03-25T15:21:11.744Z,42.68
2023-03-25T15:23:46.468Z,44.79
2023-03-25T15:26:39.761Z,41.92
2023-03-25T15:29:12.198Z,44.28
2023-03-25T15:31:47.832Z,45.15
2023-03-25T15:34:26.145Z,44.71
2023-03-25T15:37:00.469Z,44.25
2023-03-25T15:40:14.319Z,44.20
2023-03-25T15:42:46.711Z,45.76
2023-03-25T15:45:42.842Z,45.19
2023-03-25T15:48:23.365Z,44.08
2023-03-25T15:51:03.300Z,43.07
2023-03-25T15:54:07.472Z,41.50
2023-03-25T15:56:40.944Z,43.62
2023-03-25T15:59:32.545Z,44.92
2023-03-25T16:02:03.397Z,43.58
2023-03-25T16:04:42.478Z,44.00
2023-03-25T16:07:13.315Z,43.62
2023-03-25T16:09:49.658Z,44.38
2023-03-25T16:12:21.584Z,44.08
2023-03-25T16:14:49.215Z,45.76
2023-03-25T16:17:18.365Z,44.82
2023-03-25T16:19:49.610Z,46.25
2023-03-25T16:22:28.408Z,43.16
2023-03-25T16:25:01.934Z,45.63
2023-03-25T16:27:37.724Z,45.42
2023-03-25T16:30:23.411Z,42.07
2023-03-25T16:32:50.273Z,43.75
2023-03-25T16:35:29.078Z,44.00
2023-03-25T16:37:59.621Z,44.48
2023-03-25T16:40:42.372Z,43.71
2023-03-25T16:43:27.882Z,44.10
2023-03-25T16:46:00.302Z,44.28
2023-03-25T16:48:30.581Z,44.21
2023-03-25T16:51:00.004Z,44.29
2023-03-25T16:53:27.920Z,44.29
2023-03-25T16:56:21.988Z,42.87
2023-03-25T16:58:57.691Z,44.29
2023-03-25T17:01:25.409Z,45.32
2023-03-25T17:04:05.530Z,45.11
2023-03-25T17:06:35.410Z,43.13
2023-03-25T17:09:03.020Z,44.07
2023-03-25T17:11:32.172Z,44.68
2023-03-25T17:14:02.427Z,44.86
2023-03-25T17:16:32.377Z,43.30
2023-03-25T17:19:00.903Z,43.55
2023-03-25T17:21:33.475Z,44.59
2023-03-25T17:24:05.472Z,44.49
2023-03-25T17:26:34.790Z,46.24
2023-03-25T17:29:06.374Z,45.77
2023-03-25T17:31:40.725Z,45.51
2023-03-25T17:34:14.692Z,44.26
2023-03-25T17:36:46.244Z,45.98
2023-03-25T17:39:19.591Z,45.16
2023-03-25T17:41:46.923Z,46.29
2023-03-25T17:44:16.734Z,46.44
2023-03-25T17:46:44.059Z,46.08
2023-03-25T17:49:19.152Z,45.63
2023-03-25T17:51:46.726Z,47.11
2023-03-25T17:54:13.500Z,47.32
2023-03-25T17:56:40.411Z,47.94
2023-03-25T17:59:19.445Z,45.66
2023-03-25T18:01:47.830Z,47.66
2023-03-25T18:04:15.426Z,47.91
2023-03-25T18:06:43.354Z,46.32
2023-03-25T18:09:18.303Z,46.88
2023-03-25T18:11:47.312Z,48.09
2023-03-25T18:14:14.130Z,48.25
2023-03-25T18:16:40.917Z,48.91
2023-03-25T18:19:18.783Z,47.57
2023-03-25T18:21:45.619Z,49.01
2023-03-25T18:24:12.662Z,49.35
2023-03-25T18:26:40.615Z,50.07
2023-03-25T18:29:12.937Z,48.85
2023-03-25T18:31:39.546Z,50.21
2023-03-25T18:34:06.271Z,50.16
2023-03-25T18:36:32.851Z,50.47
2023-03-25T18:38:59.464Z,50.79
2023-03-25T18:41:26.076Z,51.01
2023-03-25T18:43:52.640Z,51.48
2023-03-25T18:46:19.246Z,51.68
2023-03-25T18:48:45.786Z,51.59
2023-03-25T18:51:13.723Z,51.47
2023-03-25T18:53:40.874Z,51.92
2023-03-25T18:56:08.032Z,52.06
2023-03-25T18:58:35.611Z,52.28
2023-03-25T19:01:06.060Z,51.83
2023-03-25T19:03:32.947Z,52.60
2023-03-25T19:06:00.804Z,52.81
2023-03-25T19:08:28.029Z,52.91
2023-03-25T19:11:01.774Z,53.10
2023-03-25T19:13:35.033Z,53.44
2023-03-25T19:16:01.572Z,53.58
2023-03-25T19:18:31.345Z,52.96
2023-03-25T19:20:58.039Z,53.89
2023-03-25T19:23:25.041Z,53.68
2023-03-25T19:25:53.053Z,53.77
2023-03-25T19:28:22.068Z,53.42
2023-03-25T19:30:51.200Z,53.84
2023-03-25T19:33:18.654Z,53.80
2023-03-25T19:35:52.769Z,53.36
2023-03-25T19:38:20.532Z,53.41
2023-03-25T19:40:47.247Z,53.90
2023-03-25T19:43:13.878Z,53.96
2023-03-25T19:45:40.587Z,54.06
2023-03-25T19:48:07.168Z,54.20
2023-03-25T19:50:34.366Z,54.08
2023-03-25T19:53:02.752Z,54.10
2023-03-25T19:55:29.712Z,53.32
2023-03-25T19:57:56.288Z,54.21
2023-03-25T20:00:27.842Z,53.65
2023-03-25T20:02:57.302Z,54.57
2023-03-25T20:05:24.744Z,54.84
2023-03-25T20:07:51.486Z,54.85
2023-03-25T20:10:20.956Z,54.06
2023-03-25T20:12:50.904Z,53.92
2023-03-25T20:15:20.027Z,55.01
2023-03-25T20:17:49.635Z,55.16
2023-03-25T20:20:17.094Z,55.26
2023-03-25T20:22:44.665Z,55.16
2023-03-25T20:25:12.661Z,55.46
2023-03-25T20:27:39.656Z,55.76
2023-03-25T20:30:08.836Z,55.53
2023-03-25T20:32:41.452Z,55.85
2023-03-25T20:35:10.465Z,55.59
2023-03-25T20:37:37.245Z,56.16
2023-03-25T20:40:05.444Z,55.82
2023-03-25T20:42:32.012Z,54.57
2023-03-25T20:44:58.680Z,56.20
2023-03-25T20:47:25.292Z,56.35
2023-03-25T20:49:51.955Z,56.38
2023-03-25T20:52:18.625Z,56.37
2023-03-25T20:54:45.288Z,56.44
2023-03-25T20:57:12.081Z,56.38
2023-03-25T20:59:38.743Z,56.77
2023-03-25T21:02:05.430Z,56.72
2023-03-25T21:04:32.198Z,56.88
2023-03-25T21:06:58.885Z,56.90
2023-03-25T21:09:25.469Z,57.08
2023-03-25T21:11:52.073Z,57.34
2023-03-25T21:14:18.878Z,57.13
2023-03-25T21:16:46.139Z,57.27
2023-03-25T21:19:12.963Z,57.39
2023-03-25T21:21:39.665Z,56.18
2023-03-25T21:24:06.682Z,57.16
2023-03-25T21:26:34.246Z,56.89
2023-03-25T21:29:00.956Z,56.94
2023-03-25T21:31:28.738Z,56.99
2023-03-25T21:33:57.034Z,56.46
2023-03-25T21:36:24.958Z,54.38
2023-03-25T21:38:54.520Z,54.70
2023-03-25T21:41:21.152Z,56.77
2023-03-25T21:43:47.812Z,56.79
2023-03-25T21:46:14.574Z,56.86
2023-03-25T21:48:41.248Z,56.76
2023-03-25T21:51:08.236Z,56.93
2023-03-25T21:53:34.808Z,56.62
2023-03-25T21:56:03.022Z,56.97
2023-03-25T21:58:30.675Z,53.89
2023-03-25T22:01:01.838Z,55.74
2023-03-25T22:03:29.378Z,56.39
2023-03-25T22:05:56.976Z,56.57
2023-03-25T22:08:24.405Z,56.30
2023-03-25T22:10:50.949Z,55.84
2023-03-25T22:13:17.503Z,56.20
2023-03-25T22:15:44.136Z,56.09
2023-03-25T22:18:10.836Z,56.33
2023-03-25T22:20:37.390Z,55.97
2023-03-25T22:23:04.134Z,56.14
2023-03-25T22:25:30.800Z,55.93
2023-03-25T22:27:57.511Z,56.13
2023-03-25T22:30:24.163Z,56.01
2023-03-25T22:32:50.778Z,56.22
2023-03-25T22:35:17.497Z,54.61
2023-03-25T22:37:44.220Z,55.40
2023-03-25T22:40:11.579Z,55.81
2023-03-25T22:42:38.302Z,55.51
2023-03-25T22:45:05.583Z,55.63
2023-03-25T22:47:32.262Z,55.86
2023-03-25T22:49:58.847Z,56.06
2023-03-25T22:52:25.457Z,56.22
2023-03-25T22:54:52.150Z,55.96
2023-03-25T22:57:18.773Z,55.75
2023-03-25T22:59:45.431Z,56.06
2023-03-25T23:02:12.088Z,56.38
2023-03-25T23:04:38.684Z,56.11
2023-03-25T23:07:08.313Z,56.15
2023-03-25T23:09:36.740Z,56.20
2023-03-25T23:12:03.440Z,53.92
2023-03-25T23:14:30.068Z,56.25
2023-03-25T23:16:56.711Z,56.50
2023-03-25T23:19:23.290Z,56.63
2023-03-25T23:21:49.886Z,56.71
2023-03-25T23:24:16.431Z,56.51
2023-03-25T23:26:43.305Z,56.68
2023-03-25T23:29:11.633Z,56.71
2023-03-25T23:31:40.885Z,56.97
2023-03-25T23:34:09.459Z,56.64
2023-03-25T23:36:37.125Z,56.97
2023-03-25T23:39:09.980Z,56.03
2023-03-25T23:41:37.270Z,57.22
2023-03-25T23:44:05.204Z,57.44
2023-03-25T23:46:32.194Z,57.46
2023-03-25T23:48:59.028Z,57.54
2023-03-25T23:51:25.576Z,57.98
2023-03-25T23:53:52.648Z,57.98
2023-03-25T23:56:21.514Z,57.81
2023-03-25T23:58:48.710Z,58.46
